createdAt,value
2018-02-19T00:00:51.015Z,24.48
2018-02-19T00:03:18.640Z,24.58
2018-02-19T00:05:46.337Z,25.20
2018-02-19T00:08:13.974Z,25.60
2018-02-19T00:10:41.576Z,22.77
2018-02-19T00:13:09.233Z,24.20
2018-02-19T00:15:36.868Z,22.98
2018-02-19T00:18:04.485Z,22.62
2018-02-19T00:20:32.128Z,22.90
2018-02-19T00:22:59.768Z,23.12
2018-02-19T00:25:27.713Z,22.52
2018-02-19T00:27:55.384Z,22.92
2018-02-19T00:30:23.003Z,23.08
2018-02-19T00:32:50.628Z,21.45
2018-02-19T00:35:18.757Z,21.83
2018-02-19T00:37:46.393Z,22.05
2018-02-19T00:40:14.053Z,20.83
2018-02-19T00:42:41.698Z,22.08
2018-02-19T00:45:09.346Z,20.12
2018-02-19T00:47:36.988Z,21.83
2018-02-19T00:50:04.713Z,22.40
2018-02-19T00:52:32.322Z,19.92
2018-02-19T00:55:00.158Z,21.17
2018-02-19T00:57:27.798Z,21.40
2018-02-19T00:59:55.390Z,21.25
2018-02-19T01:02:23.003Z,21.10
2018-02-19T01:04:50.689Z,20.30
2018-02-19T01:07:18.317Z,22.35
2018-02-19T01:09:45.947Z,23.45
2018-02-19T01:12:13.633Z,21.65
2018-02-19T01:14:41.253Z,21.12
2018-02-19T01:17:09.202Z,19.33
2018-02-19T01:19:36.832Z,18.67
2018-02-19T01:22:04.476Z,21.23
2018-02-19T01:24:32.095Z,21.58
2018-02-19T01:27:00.064Z,21.73
2018-02-19T01:29:27.853Z,20.35
2018-02-19T01:31:55.482Z,23.10
2018-02-19T01:34:23.084Z,20.08
2018-02-19T01:36:50.761Z,19.40
2018-02-19T01:39:18.383Z,21.37
2018-02-19T01:41:46.045Z,19.80
2018-02-19T01:44:13.693Z,21.95
2018-02-19T01:46:41.312Z,22.33
2018-02-19T01:49:08.962Z,22.67
2018-02-19T01:51:36.568Z,19.83
2018-02-19T01:54:04.188Z,21.67
2018-02-19T01:56:31.858Z,20.73
2018-02-19T01:58:59.520Z,19.98
2018-02-19T02:01:27.368Z,20.02
2018-02-19T02:03:54.959Z,19.40
2018-02-19T02:06:22.581Z,21.10
2018-02-19T02:08:50.218Z,21.10
2018-02-19T02:11:17.883Z,19.25
2018-02-19T02:13:45.480Z,22.70
2018-02-19T02:16:13.072Z,21.77
2018-02-19T02:18:40.972Z,21.70
2018-02-19T02:21:08.565Z,20.02
2018-02-19T02:23:36.193Z,19.08
2018-02-19T02:26:03.782Z,21.33
2018-02-19T02:28:31.430Z,21.60
2018-02-19T02:30:59.122Z,20.17
2018-02-19T02:33:26.705Z,21.02
2018-02-19T02:35:54.339Z,21.02
2018-02-19T02:38:22.031Z,19.25
2018-02-19T02:40:49.617Z,20.25
2018-02-19T02:43:17.260Z,20.75
2018-02-19T02:45:44.892Z,20.90
2018-02-19T02:48:12.534Z,19.55
2018-02-19T02:50:40.164Z,21.52
2018-02-19T02:53:07.824Z,21.52
2018-02-19T02:55:35.441Z,20.58
2018-02-19T02:58:03.085Z,21.70
2018-02-19T03:00:30.738Z,20.17
2018-02-19T03:02:58.398Z,21.60
2018-02-19T03:05:26.031Z,20.88
2018-02-19T03:07:53.666Z,20.37
2018-02-19T03:10:21.297Z,19.37
2018-02-19T03:12:48.901Z,20.20
2018-02-19T03:15:16.548Z,19.58
2018-02-19T03:17:44.141Z,21.30
2018-02-19T03:20:12.118Z,19.77
2018-02-19T03:22:39.774Z,20.55
2018-02-19T03:25:07.648Z,21.90
2018-02-19T03:27:35.287Z,21.35
2018-02-19T03:30:02.932Z,21.75
2018-02-19T03:32:30.539Z,20.00
2018-02-19T03:34:58.138Z,20.50
2018-02-19T03:37:25.784Z,21.30
2018-02-19T03:39:53.391Z,21.55
2018-02-19T03:42:21.026Z,20.67
2018-02-19T03:44:48.698Z,20.40
2018-02-19T03:47:16.615Z,23.33
2018-02-19T03:49:44.586Z,20.62
2018-02-19T03:52:12.252Z,20.27
2018-02-19T03:54:39.934Z,20.27
2018-02-19T03:57:07.518Z,18.87
2018-02-19T03:59:35.134Z,22.25
2018-02-19T04:02:02.733Z,21.85
2018-02-19T04:04:30.394Z,21.45
2018-02-19T04:06:58.082Z,21.83
2018-02-19T04:09:25.985Z,22.73
2018-02-19T04:11:53.755Z,19.80
2018-02-19T04:14:21.381Z,20.02
2018-02-19T04:16:49.029Z,21.37
2018-02-19T04:19:16.685Z,22.00
2018-02-19T04:21:44.277Z,20.12
2018-02-19T04:24:11.869Z,22.58
2018-02-19T04:26:39.552Z,19.48
2018-02-19T04:29:07.166Z,24.00
2018-02-19T04:31:34.834Z,20.40
2018-02-19T04:34:02.494Z,22.17
2018-02-19T04:36:30.072Z,21.05
2018-02-19T04:38:57.687Z,22.65
2018-02-19T04:41:25.344Z,21.52
2018-02-19T04:43:53.016Z,22.17
2018-02-19T04:46:25.231Z,20.88
2018-02-19T04:48:52.820Z,23.17
2018-02-19T04:51:20.422Z,22.60
2018-02-19T04:53:48.115Z,19.80
2018-02-19T04:56:15.733Z,20.48
2018-02-19T04:58:43.333Z,20.70
2018-02-19T05:01:11.003Z,21.98
2018-02-19T05:03:38.609Z,21.48
2018-02-19T05:06:06.252Z,20.00
2018-02-19T05:08:34.114Z,21.10
2018-02-19T05:11:01.726Z,20.83
2018-02-19T05:13:29.370Z,21.83
2018-02-19T05:15:57.010Z,21.75
2018-02-19T05:18:24.671Z,20.48
2018-02-19T05:20:52.595Z,22.08
2018-02-19T05:23:20.213Z,21.65
2018-02-19T05:25:47.886Z,23.08
2018-02-19T05:28:15.506Z,21.45
2018-02-19T05:30:43.450Z,22.13
2018-02-19T05:33:11.079Z,21.58
2018-02-19T05:35:38.755Z,23.75
2018-02-19T05:38:06.656Z,23.80
2018-02-19T05:40:34.293Z,22.87
2018-02-19T05:43:02.029Z,22.52
2018-02-19T05:45:29.865Z,21.67
2018-02-19T05:47:57.492Z,24.33
2018-02-19T05:50:25.229Z,24.27
2018-02-19T05:52:52.851Z,22.30
2018-02-19T05:55:20.786Z,21.75
2018-02-19T05:57:48.459Z,23.55
2018-02-19T06:00:16.092Z,23.30
2018-02-19T06:02:43.696Z,22.40
2018-02-19T06:05:11.363Z,22.25
2018-02-19T06:07:38.967Z,20.98
2018-02-19T06:10:06.570Z,21.87
2018-02-19T06:12:34.529Z,21.12
2018-02-19T06:15:02.395Z,21.87
2018-02-19T06:17:30.036Z,21.30
2018-02-19T06:19:57.775Z,21.77
2018-02-19T06:22:25.374Z,22.52
2018-02-19T06:24:52.999Z,22.23
2018-02-19T06:27:20.664Z,24.45
2018-02-19T06:29:48.247Z,22.25
2018-02-19T06:32:15.841Z,24.40
2018-02-19T06:34:43.796Z,21.80
2018-02-19T06:37:11.400Z,24.70
2018-02-19T06:39:39.214Z,21.65
2018-02-19T06:42:06.861Z,21.05
2018-02-19T06:44:34.506Z,23.67
2018-02-19T06:47:02.146Z,24.10
2018-02-19T06:49:29.805Z,23.70
2018-02-19T06:51:57.377Z,22.95
2018-02-19T06:54:25.221Z,22.08
2018-02-19T06:56:53.165Z,22.60
2018-02-19T06:59:21.132Z,21.15
2018-02-19T07:01:48.747Z,23.38
2018-02-19T07:04:16.469Z,23.12
2018-02-19T07:06:44.092Z,24.33
2018-02-19T07:09:11.698Z,23.70
2018-02-19T07:11:39.478Z,23.75
2018-02-19T07:14:07.080Z,23.73
2018-02-19T07:16:35.573Z,22.90
2018-02-19T07:19:03.235Z,22.30
2018-02-19T07:21:31.975Z,23.62
2018-02-19T07:23:59.566Z,23.38
2018-02-19T07:26:27.181Z,21.35
2018-02-19T07:28:54.830Z,24.40
2018-02-19T07:31:22.451Z,24.90
2018-02-19T07:33:50.460Z,23.83
2018-02-19T07:36:18.110Z,23.25
2018-02-19T07:38:45.802Z,24.23
2018-02-19T07:41:13.464Z,24.37
2018-02-19T07:43:41.124Z,25.00
2018-02-19T07:46:08.801Z,24.87
2018-02-19T07:48:36.570Z,23.80
2018-02-19T07:51:04.174Z,24.10
2018-02-19T07:53:31.843Z,22.75
2018-02-19T07:55:59.525Z,25.98
2018-02-19T07:58:27.373Z,25.23
2018-02-19T08:00:54.989Z,24.80
2018-02-19T08:03:22.593Z,24.60
2018-02-19T08:05:50.170Z,23.12
2018-02-19T08:08:17.821Z,23.00
2018-02-19T08:10:45.478Z,23.98
2018-02-19T08:13:13.076Z,24.98
2018-02-19T08:15:40.964Z,24.27
2018-02-19T08:18:08.593Z,23.77
2018-02-19T08:20:36.173Z,24.83
2018-02-19T08:23:03.764Z,26.30
2018-02-19T08:25:31.387Z,26.12
2018-02-19T08:27:59.032Z,24.00
2018-02-19T08:30:26.623Z,24.98
2018-02-19T08:32:54.560Z,25.02
2018-02-19T08:35:22.212Z,25.45
2018-02-19T08:37:49.870Z,27.65
2018-02-19T08:40:17.553Z,26.15
2018-02-19T08:42:45.190Z,24.33
2018-02-19T08:45:12.788Z,27.37
2018-02-19T08:47:40.401Z,25.12
2018-02-19T08:50:08.020Z,26.00
2018-02-19T08:52:35.747Z,27.08
2018-02-19T08:55:03.447Z,27.15
2018-02-19T08:57:31.060Z,26.53
2018-02-19T08:59:58.735Z,26.90
2018-02-19T09:02:26.336Z,25.67
2018-02-19T09:04:54.011Z,26.70
2018-02-19T09:07:21.708Z,26.10
2018-02-19T09:09:49.348Z,27.60
2018-02-19T09:12:16.982Z,26.70
2018-02-19T09:14:44.656Z,26.50
2018-02-19T09:17:12.253Z,24.77
2018-02-19T09:19:39.851Z,28.77
2018-02-19T09:22:07.755Z,26.60
2018-02-19T09:24:35.372Z,26.15
2018-02-19T09:27:03.332Z,25.20
2018-02-19T09:29:30.970Z,25.13
2018-02-19T09:31:58.968Z,28.37
2018-02-19T09:34:26.573Z,26.23
2018-02-19T09:36:54.201Z,24.97
2018-02-19T09:39:21.833Z,27.03
2018-02-19T09:41:49.478Z,25.83
2018-02-19T09:44:17.110Z,27.43
2018-02-19T09:46:44.755Z,24.27
2018-02-19T09:49:12.718Z,25.30
2018-02-19T09:51:40.370Z,26.30
2018-02-19T09:54:07.970Z,27.00
2018-02-19T09:56:35.634Z,26.00
2018-02-19T09:59:03.274Z,27.80
2018-02-19T10:01:31.424Z,25.33
2018-02-19T10:03:59.028Z,24.77
2018-02-19T10:06:26.654Z,27.23
2018-02-19T10:08:54.520Z,27.20
2018-02-19T10:11:22.161Z,27.47
2018-02-19T10:13:49.825Z,26.10
2018-02-19T10:16:17.419Z,27.77
2018-02-19T10:18:45.273Z,26.80
2018-02-19T10:21:12.963Z,27.60
2018-02-19T10:23:40.910Z,24.70
2018-02-19T10:26:08.591Z,28.53
2018-02-19T10:28:36.434Z,27.20
2018-02-19T10:31:04.024Z,25.37
2018-02-19T10:33:32.474Z,25.43
2018-02-19T10:36:00.077Z,25.17
2018-02-19T10:38:27.706Z,24.83
2018-02-19T10:40:55.308Z,26.20
2018-02-19T10:43:23.084Z,29.00
2018-02-19T10:45:50.762Z,28.20
2018-02-19T10:48:18.387Z,27.27
2018-02-19T10:50:46.002Z,26.93
2018-02-19T10:53:13.686Z,27.80
2018-02-19T10:55:41.284Z,26.53
2018-02-19T10:58:09.038Z,27.53
2018-02-19T11:00:42.370Z,28.87
2018-02-19T11:03:09.982Z,25.07
2018-02-19T11:05:37.591Z,24.27
2018-02-19T11:08:05.582Z,27.37
2018-02-19T11:10:33.213Z,28.40
2018-02-19T11:13:00.815Z,27.63
2018-02-19T11:15:28.711Z,24.77
2018-02-19T11:17:56.383Z,25.50
2018-02-19T11:20:24.302Z,26.70
2018-02-19T11:22:51.893Z,25.53
2018-02-19T11:25:19.503Z,25.47
2018-02-19T11:27:47.394Z,25.90
2018-02-19T11:30:15.121Z,26.50
2018-02-19T11:32:43.125Z,25.43
2018-02-19T11:35:10.828Z,24.50
2018-02-19T11:37:38.541Z,26.63
2018-02-19T11:40:06.601Z,28.03
2018-02-19T11:42:34.596Z,27.30
2018-02-19T11:45:02.213Z,24.20
2018-02-19T11:47:29.880Z,26.27
2018-02-19T11:49:57.790Z,27.47
2018-02-19T11:52:25.766Z,25.53
2018-02-19T11:54:53.482Z,25.33
2018-02-19T11:57:21.103Z,23.73
2018-02-19T11:59:48.821Z,28.37
2018-02-19T12:02:16.466Z,24.70
2018-02-19T12:04:44.186Z,24.20
2018-02-19T12:07:11.912Z,26.50
2018-02-19T12:09:39.641Z,24.93
2018-02-19T12:12:07.349Z,25.50
2018-02-19T12:14:35.148Z,26.43
2018-02-19T12:17:02.937Z,25.03
2018-02-19T12:19:30.693Z,25.83
2018-02-19T12:21:58.375Z,25.20
2018-02-19T12:24:26.086Z,24.80
2018-02-19T12:26:53.850Z,25.07
2018-02-19T12:29:21.554Z,25.40
2018-02-19T12:31:49.255Z,25.97
2018-02-19T12:34:17.029Z,24.90
2018-02-19T12:36:44.773Z,24.87
2018-02-19T12:39:12.468Z,24.90
2018-02-19T12:41:40.451Z,25.00
2018-02-19T12:44:08.123Z,27.00
2018-02-19T12:46:35.818Z,23.93
2018-02-19T12:49:04.400Z,24.67
2018-02-19T12:51:31.997Z,25.33
2018-02-19T12:53:59.741Z,25.93
2018-02-19T12:56:27.371Z,25.00
2018-02-19T12:58:55.098Z,23.87
2018-02-19T13:01:22.884Z,25.77
2018-02-19T13:03:50.552Z,24.87
2018-02-19T13:06:18.270Z,24.83
2018-02-19T13:08:45.981Z,24.97
2018-02-19T13:11:14.319Z,24.30
2018-02-19T13:13:42.305Z,23.73
2018-02-19T13:16:09.928Z,24.37
2018-02-19T13:18:37.618Z,24.50
2018-02-19T13:21:05.263Z,24.83
2018-02-19T13:23:33.022Z,25.97
2018-02-19T13:26:00.702Z,23.93
2018-02-19T13:28:28.662Z,24.63
2018-02-19T13:30:56.418Z,25.83
2018-02-19T13:33:24.156Z,25.17
2018-02-19T13:35:51.900Z,24.90
2018-02-19T13:38:19.611Z,27.10
2018-02-19T13:40:47.312Z,26.80
2018-02-19T13:43:15.401Z,29.03
2018-02-19T13:45:43.094Z,60.33
2018-02-19T13:48:10.824Z,30.00
2018-02-19T13:50:38.781Z,30.40
2018-02-19T13:53:06.637Z,30.47
2018-02-19T13:55:34.295Z,28.80
2018-02-19T13:58:02.185Z,26.70
2018-02-19T14:00:29.916Z,25.37
2018-02-19T14:02:57.608Z,28.53
2018-02-19T14:05:25.275Z,29.50
2018-02-19T14:07:53.436Z,27.50
2018-02-19T14:10:22.873Z,41.33
2018-02-19T14:12:50.702Z,38.70
2018-02-19T14:15:18.449Z,29.40
2018-02-19T14:17:46.316Z,28.90
2018-02-19T14:20:14.176Z,29.97
2018-02-19T14:22:41.842Z,27.87
2018-02-19T14:25:09.462Z,27.37
2018-02-19T14:27:37.223Z,26.17
2018-02-19T14:30:05.030Z,38.87
2018-02-19T14:32:32.751Z,32.00
2018-02-19T14:35:00.525Z,32.33
2018-02-19T14:37:28.246Z,48.83
2018-02-19T14:39:55.937Z,46.40
2018-02-19T14:42:23.703Z,41.67
2018-02-19T14:44:51.400Z,39.40
2018-02-19T14:47:20.136Z,26.53
2018-02-19T14:49:47.799Z,28.17
2018-02-19T14:52:15.523Z,40.70
2018-02-19T14:54:43.543Z,32.57
2018-02-19T14:57:11.172Z,62.03
2018-02-19T14:59:38.837Z,45.57
2018-02-19T15:02:06.490Z,39.70
2018-02-19T15:04:34.162Z,27.70
2018-02-19T15:07:01.854Z,25.07
2018-02-19T15:09:29.502Z,28.33
2018-02-19T15:11:57.209Z,25.90
2018-02-19T15:14:24.862Z,24.30
2018-02-19T15:16:52.485Z,26.57
2018-02-19T15:19:20.152Z,25.80
2018-02-19T15:21:47.808Z,23.63
2018-02-19T15:24:15.507Z,24.47
2018-02-19T15:26:43.171Z,24.37
2018-02-19T15:29:10.823Z,23.50
2018-02-19T15:31:38.601Z,25.10
2018-02-19T15:34:06.312Z,25.13
2018-02-19T15:36:34.938Z,24.10
2018-02-19T15:39:02.624Z,23.50
2018-02-19T15:41:30.541Z,22.93
2018-02-19T15:43:58.191Z,23.23
2018-02-19T15:46:25.823Z,24.17
2018-02-19T15:48:53.543Z,23.17
2018-02-19T15:51:21.228Z,21.60
2018-02-19T15:53:48.888Z,22.97
2018-02-19T15:56:16.585Z,23.00
2018-02-19T15:58:44.231Z,22.97
2018-02-19T16:01:11.902Z,21.93
2018-02-19T16:03:39.559Z,21.80
2018-02-19T16:06:07.246Z,23.10
2018-02-19T16:08:34.908Z,20.50
2018-02-19T16:11:02.636Z,22.70
2018-02-19T16:13:30.350Z,21.20
2018-02-19T16:15:58.003Z,22.87
2018-02-19T16:18:25.635Z,25.20
2018-02-19T16:20:53.380Z,24.00
2018-02-19T16:23:21.074Z,20.33
2018-02-19T16:25:48.710Z,23.20
2018-02-19T16:28:16.352Z,22.77
2018-02-19T16:30:44.059Z,22.27
2018-02-19T16:33:11.719Z,24.07
2018-02-19T16:35:39.320Z,21.50
2018-02-19T16:38:07.204Z,23.90
2018-02-19T16:40:35.161Z,21.87
2018-02-19T16:43:02.788Z,23.30
2018-02-19T16:45:30.461Z,22.53
2018-02-19T16:47:58.080Z,21.90
2018-02-19T16:50:25.742Z,20.77
2018-02-19T16:52:53.419Z,21.83
2018-02-19T16:55:21.013Z,25.10
2018-02-19T16:57:48.660Z,20.33
2018-02-19T17:00:16.312Z,22.87
2018-02-19T17:02:44.000Z,21.77
2018-02-19T17:05:11.655Z,22.27
2018-02-19T17:07:39.268Z,22.77
2018-02-19T17:10:06.924Z,25.97
2018-02-19T17:12:34.596Z,23.83
2018-02-19T17:15:02.421Z,23.50
2018-02-19T17:17:30.103Z,24.07
2018-02-19T17:19:57.828Z,23.43
2018-02-19T17:22:25.473Z,24.60
2018-02-19T17:24:53.162Z,27.20
2018-02-19T17:27:21.058Z,23.77
2018-02-19T17:29:48.701Z,22.70
2018-02-19T17:32:16.414Z,24.03
2018-02-19T17:34:44.125Z,25.37
2018-02-19T17:37:11.827Z,22.57
2018-02-19T17:39:39.471Z,25.53
2018-02-19T17:42:07.202Z,26.70
2018-02-19T17:44:34.853Z,25.23
2018-02-19T17:47:02.773Z,26.13
2018-02-19T17:49:30.468Z,26.17
2018-02-19T17:51:58.136Z,25.37
2018-02-19T17:54:25.835Z,25.77
2018-02-19T17:56:53.829Z,26.63
2018-02-19T17:59:21.791Z,25.90
2018-02-19T18:01:49.509Z,28.17
2018-02-19T18:04:17.119Z,26.23
2018-02-19T18:06:44.810Z,25.10
2018-02-19T18:09:12.526Z,26.77
2018-02-19T18:11:40.145Z,30.30
2018-02-19T18:14:07.869Z,31.70
2018-02-19T18:16:35.521Z,32.50
2018-02-19T18:19:03.184Z,31.10
2018-02-19T18:21:31.311Z,33.57
2018-02-19T18:23:59.214Z,34.00
2018-02-19T18:26:26.916Z,31.67
2018-02-19T18:28:54.611Z,31.60
2018-02-19T18:31:22.295Z,30.00
2018-02-19T18:33:50.022Z,29.97
2018-02-19T18:36:17.689Z,30.33
2018-02-19T18:38:45.329Z,29.10
2018-02-19T18:41:13.077Z,30.00
2018-02-19T18:43:40.829Z,29.10
2018-02-19T18:46:08.518Z,26.87
2018-02-19T18:48:36.154Z,30.67
2018-02-19T18:51:03.837Z,28.90
2018-02-19T18:53:31.495Z,29.37
2018-02-19T18:55:59.200Z,30.00
2018-02-19T18:58:26.824Z,31.70
2018-02-19T19:00:54.766Z,29.50
2018-02-19T19:03:22.484Z,26.90
2018-02-19T19:05:50.123Z,26.50
2018-02-19T19:08:29.619Z,29.65
2018-02-19T19:10:57.222Z,28.80
2018-02-19T19:13:24.823Z,27.98
2018-02-19T19:15:52.729Z,27.90
2018-02-19T19:18:20.707Z,25.73
2018-02-19T19:20:48.782Z,27.10
2018-02-19T19:23:16.402Z,26.00
2018-02-19T19:25:44.099Z,27.43
2018-02-19T19:28:11.795Z,29.12
2018-02-19T19:30:39.451Z,27.30
2018-02-19T19:33:07.105Z,28.10
2018-02-19T19:35:34.788Z,27.27
2018-02-19T19:38:02.458Z,29.13
2018-02-19T19:40:30.084Z,28.55
2018-02-19T19:42:57.761Z,28.75
2018-02-19T19:45:25.368Z,26.73
2018-02-19T19:47:53.019Z,25.45
2018-02-19T19:50:20.728Z,27.23
2018-02-19T19:52:48.375Z,29.42
2018-02-19T19:55:24.510Z,32.63
2018-02-19T19:57:52.797Z,36.55
2018-02-19T20:00:20.442Z,40.10
2018-02-19T20:02:48.254Z,39.08
2018-02-19T20:05:15.953Z,34.55
2018-02-19T20:07:43.622Z,32.80
2018-02-19T20:10:11.900Z,34.28
2018-02-19T20:12:39.619Z,31.30
2018-02-19T20:15:07.317Z,30.55
2018-02-19T20:17:35.247Z,31.20
2018-02-19T20:20:03.229Z,29.73
2018-02-19T20:22:30.913Z,29.60
2018-02-19T20:24:58.600Z,28.95
2018-02-19T20:27:26.272Z,28.80
2018-02-19T20:29:53.942Z,27.65
2018-02-19T20:32:21.800Z,25.60
2018-02-19T20:34:49.756Z,28.20
2018-02-19T20:37:17.455Z,26.20
2018-02-19T20:39:45.181Z,23.70
2018-02-19T20:42:12.853Z,25.70
2018-02-19T20:44:40.886Z,26.27
2018-02-19T20:47:08.587Z,24.60
2018-02-19T20:49:36.239Z,25.65
2018-02-19T20:52:04.009Z,23.65
2018-02-19T20:54:31.719Z,27.55
2018-02-19T20:56:59.353Z,24.33
2018-02-19T20:59:27.011Z,24.33
2018-02-19T21:01:54.659Z,27.67
2018-02-19T21:04:22.401Z,25.37
2018-02-19T21:06:50.127Z,27.80
2018-02-19T21:09:17.796Z,25.23
2018-02-19T21:11:45.452Z,24.55
2018-02-19T21:14:13.139Z,25.90
2018-02-19T21:16:40.806Z,26.00
2018-02-19T21:19:08.430Z,28.58
2018-02-19T21:21:36.071Z,29.87
2018-02-19T21:24:03.746Z,27.67
2018-02-19T21:26:31.676Z,29.08
2018-02-19T21:28:59.644Z,29.52
2018-02-19T21:31:27.407Z,29.02
2018-02-19T21:33:55.032Z,33.90
2018-02-19T21:36:22.732Z,33.72
2018-02-19T21:38:50.431Z,36.53
2018-02-19T21:41:18.069Z,32.17
2018-02-19T21:43:46.097Z,33.47
2018-02-19T21:46:13.741Z,30.25
2018-02-19T21:48:41.849Z,32.53
2018-02-19T21:51:09.609Z,34.22
2018-02-19T21:53:37.211Z,33.00
2018-02-19T21:56:04.968Z,34.13
2018-02-19T21:58:33.319Z,36.47
2018-02-19T22:01:06.717Z,33.10
2018-02-19T22:03:36.310Z,37.00
2018-02-19T22:06:04.103Z,35.80
2018-02-19T22:08:31.729Z,35.72
2018-02-19T22:10:59.370Z,34.70
2018-02-19T22:13:27.122Z,33.67
2018-02-19T22:15:54.766Z,33.20
2018-02-19T22:18:22.358Z,32.60
2018-02-19T22:20:49.949Z,34.50
2018-02-19T22:23:17.572Z,32.50
2018-02-19T22:25:45.248Z,30.80
2018-02-19T22:28:12.882Z,30.08
2018-02-19T22:30:40.493Z,29.15
2018-02-19T22:33:08.137Z,31.10
2018-02-19T22:35:35.756Z,27.87
2018-02-19T22:38:03.438Z,27.85
2018-02-19T22:40:31.023Z,27.80
2018-02-19T22:42:58.863Z,30.62
2018-02-19T22:45:26.496Z,29.87
2018-02-19T22:47:54.155Z,29.92
2018-02-19T22:50:21.867Z,29.75
2018-02-19T22:52:49.468Z,27.75
2018-02-19T22:55:17.160Z,27.40
2018-02-19T22:57:44.767Z,27.95
2018-02-19T23:00:13.295Z,28.23
2018-02-19T23:02:40.966Z,28.48
2018-02-19T23:05:08.564Z,29.17
2018-02-19T23:07:36.226Z,27.92
2018-02-19T23:10:03.827Z,27.05
2018-02-19T23:12:31.467Z,28.25
2018-02-19T23:14:59.544Z,26.50
2018-02-19T23:17:27.209Z,25.50
2018-02-19T23:19:54.899Z,27.08
2018-02-19T23:22:22.541Z,27.45
2018-02-19T23:24:50.201Z,27.45
2018-02-19T23:27:17.788Z,29.92
2018-02-19T23:29:45.451Z,26.58
2018-02-19T23:32:13.176Z,25.75
2018-02-19T23:34:40.772Z,26.23
2018-02-19T23:37:08.431Z,28.08
2018-02-19T23:39:36.081Z,30.30
2018-02-19T23:42:03.685Z,30.45
2018-02-19T23:44:31.346Z,32.78
2018-02-19T23:46:59.218Z,28.75
2018-02-19T23:49:26.909Z,31.73
2018-02-19T23:51:54.538Z,30.05
2018-02-19T23:54:22.185Z,31.02
2018-02-19T23:56:50.094Z,29.20
2018-02-19T23:59:17.762Z,28.98
